Time,TemperatureF,DewpointF,PressureIn,WindDirection,WindDirectionDegrees,WindSpeedMPH,WindSpeedGustMPH,Humidity,HourlyPrecipIn,Conditions,Clouds,dailyrainin,SoftwareType,DateUTC
2013-11-24 00:21:00,33.0,26.0,30.03,North,358,0.0,0.0,75,0.00,,,0.00,,2013-11-24 08:21:00,
2013-11-24 01:11:00,32.0,26.0,30.03,North,358,0.0,0.0,77,0.00,,,0.00,,2013-11-24 09:11:00,
2013-11-24 01:21:00,32.0,26.0,30.03,North,358,0.0,0.0,77,0.00,,,0.00,,2013-11-24 09:21:00,
2013-11-24 02:23:00,31.0,25.0,30.04,North,358,0.0,0.0,79,0.00,,,0.00,,2013-11-24 10:23:00,
2013-11-24 02:53:00,31.0,26.0,30.06,North,358,0.0,0.0,80,0.00,,,0.00,,2013-11-24 10:53:00,
2013-11-24 03:52:00,30.0,25.0,30.05,North,358,0.0,0.0,80,0.00,,,0.00,,2013-11-24 11:52:00,
2013-11-24 04:11:00,30.0,25.0,30.05,North,358,0.0,0.0,81,0.00,,,0.00,,2013-11-24 12:11:00,
2013-11-24 04:21:00,30.0,25.0,30.05,North,358,0.0,0.0,81,0.00,,,0.00,,2013-11-24 12:21:00,
2013-11-24 04:42:00,29.0,24.0,30.06,North,358,0.0,0.0,82,0.00,,,0.00,,2013-11-24 12:42:00,
2013-11-24 05:21:00,29.0,25.0,30.07,North,358,0.0,0.0,83,0.00,,,0.00,,2013-11-24 13:21:00,
2013-11-24 05:42:00,29.0,24.0,30.07,North,358,0.0,0.0,82,0.00,,,0.00,,2013-11-24 13:42:00,
2013-11-24 05:52:00,29.0,24.0,30.07,North,358,0.0,0.0,82,0.00,,,0.00,,2013-11-24 13:52:00,
2013-11-24 06:11:00,29.0,25.0,30.16,North,358,0.0,0.0,84,0.00,,,0.00,,2013-11-24 14:11:00,
2013-11-24 06:21:00,29.0,25.0,30.16,North,358,0.0,0.0,84,0.00,,,0.00,,2013-11-24 14:21:00,
2013-11-24 06:42:00,29.0,25.0,30.14,North,358,0.0,0.0,83,0.00,,,0.00,,2013-11-24 14:42:00,
2013-11-24 06:52:00,29.0,25.0,30.14,North,358,0.0,0.0,83,0.00,,,0.00,,2013-11-24 14:52:00,
2013-11-24 07:22:00,28.0,24.0,30.11,North,358,0.0,0.0,84,0.00,,,0.00,,2013-11-24 15:22:00,
2013-11-24 07:43:00,28.0,24.0,30.12,North,358,0.0,0.0,84,0.00,,,0.00,,2013-11-24 15:43:00,
2013-11-24 07:53:00,28.0,24.0,30.12,North,358,0.0,0.0,84,0.00,,,0.00,,2013-11-24 15:53:00,
2013-11-24 08:23:00,29.0,25.0,30.12,North,358,0.0,0.0,85,0.00,,,0.00,,2013-11-24 16:23:00,
2013-11-24 08:42:00,30.0,26.0,30.13,North,358,0.0,0.0,86,0.00,,,0.00,,2013-11-24 16:42:00,
2013-11-24 08:53:00,30.0,26.0,30.13,North,358,0.0,0.0,85,0.00,,,0.00,,2013-11-24 16:53:00,
2013-11-24 09:22:00,32.0,29.0,30.14,North,358,0.0,0.0,87,0.00,,,0.00,,2013-11-24 17:22:00,
2013-11-24 09:42:00,35.0,32.0,30.14,North,358,0.0,0.0,88,0.00,,,0.00,,2013-11-24 17:42:00,
2013-11-24 09:52:00,35.0,32.0,30.14,North,358,0.0,0.0,88,0.00,,,0.00,,2013-11-24 17:52:00,
2013-11-24 10:21:00,43.0,39.0,30.14,North,358,0.0,0.0,85,0.00,,,0.00,,2013-11-24 18:21:00,
2013-11-24 10:52:00,52.0,37.0,30.14,NE,56,0.0,2.0,56,0.00,,,0.00,,2013-11-24 18:52:00,
2013-11-24 11:41:00,57.0,35.0,30.13,East,80,0.0,3.0,44,0.00,,,0.00,,2013-11-24 19:41:00,
2013-11-24 13:21:00,66.0,37.0,30.09,NNE,17,1.0,3.0,34,0.00,,,0.00,,2013-11-24 21:21:00,
2013-11-24 13:43:00,65.0,37.0,30.08,NNW,330,0.0,3.0,36,0.00,,,0.00,,2013-11-24 21:43:00,
2013-11-24 13:54:00,65.0,37.0,30.08,NNW,330,0.0,3.0,36,0.00,,,0.00,,2013-11-24 21:54:00,
2013-11-24 14:03:00,65.0,37.0,30.08,NNW,330,0.0,3.0,36,0.00,,,0.00,,2013-11-24 22:03:00,
2013-11-24 14:23:00,66.0,36.0,30.08,North,10,0.0,3.0,33,0.00,,,0.00,,2013-11-24 22:23:00,
2013-11-24 14:33:00,66.0,36.0,30.08,North,10,0.0,3.0,33,0.00,,,0.00,,2013-11-24 22:33:00,
2013-11-24 14:43:00,66.0,36.0,30.08,North,10,0.0,3.0,33,0.00,,,0.00,,2013-11-24 22:43:00,
2013-11-24 14:53:00,66.0,35.0,30.09,NW,326,1.0,4.0,32,0.00,,,0.00,,2013-11-24 22:53:00,
2013-11-24 15:22:00,65.0,39.0,30.08,NNE,18,0.0,6.0,38,0.00,,,0.00,,2013-11-24 23:22:00,
2013-11-24 15:42:00,64.0,39.0,30.12,NNW,330,0.0,3.0,40,0.00,,,0.00,,2013-11-24 23:42:00,
2013-11-24 15:52:00,64.0,41.0,30.11,NW,309,0.0,3.0,43,0.00,,,0.00,,2013-11-24 23:52:00,
2013-11-24 16:22:00,62.0,43.0,30.10,NNW,348,0.0,3.0,49,0.00,,,0.00,,2013-11-25 00:22:00,
2013-11-24 16:52:00,59.0,42.0,30.10,NNW,335,0.0,1.0,53,0.00,,,0.00,,2013-11-25 00:52:00,
2013-11-24 17:01:00,59.0,42.0,30.10,NNW,335,0.0,1.0,53,0.00,,,0.00,,2013-11-25 01:01:00,
2013-11-24 17:11:00,59.0,42.0,30.10,NNW,335,0.0,1.0,53,0.00,,,0.00,,2013-11-25 01:11:00,
2013-11-24 17:21:00,59.0,42.0,30.10,NNW,335,0.0,1.0,53,0.00,,,0.00,,2013-11-25 01:21:00,
2013-11-24 17:42:00,54.0,40.0,30.11,NNW,335,0.0,0.0,58,0.00,,,0.00,,2013-11-25 01:42:00,
2013-11-24 17:52:00,53.0,40.0,30.14,NNW,334,0.0,0.0,61,0.00,,,0.00,,2013-11-25 01:52:00,
2013-11-24 18:21:00,50.0,39.0,30.14,NNW,334,0.0,0.0,65,0.00,,,0.00,,2013-11-25 02:21:00,
2013-11-24 18:42:00,48.0,38.0,30.14,NNW,335,0.0,0.0,68,0.00,,,0.00,,2013-11-25 02:42:00,
2013-11-24 18:52:00,48.0,38.0,30.14,NNW,335,0.0,0.0,68,0.00,,,0.00,,2013-11-25 02:52:00,
2013-11-24 19:21:00,45.0,36.0,30.14,NNW,335,0.0,0.0,71,0.00,,,0.00,,2013-11-25 03:21:00,
2013-11-24 21:22:00,39.0,33.0,30.16,NNW,335,0.0,0.0,79,0.00,,,0.00,,2013-11-25 05:22:00,
2013-11-24 21:52:00,39.0,34.0,30.18,NNW,335,0.0,0.0,81,0.00,,,0.00,,2013-11-25 05:52:00,